Time;durP1;ratioP1;P1;durP2;ratioP2;P2;SDS_P1;SDS_P2;PMS_P1;PMS_P2;Temp;Humidity;BMP_temperature;BMP_pressure;BME280_temperature;BME280_humidity;BME280_pressure;Samples;Min_cycle;Max_cycle;Signal;HPM_P1;HPM_P2
2023/09/18 00:01:14;;;;;;;2.20;1.77;;;;;;;;;;5041130;28;20469;-82
2023/09/18 00:03:40;;;;;;;3.53;2.05;;;;;;;;;;5040593;28;20417;-82
2023/09/18 00:06:08;;;;;;;2.00;1.80;;;;;;;;;;5040838;28;20383;-82
2023/09/18 00:08:34;;;;;;;3.65;3.35;;;;;;;;;;5040505;28;20808;-83
2023/09/18 00:11:00;;;;;;;2.28;2.00;;;;;;;;;;5039603;28;20391;-82
2023/09/18 00:13:26;;;;;;;2.08;1.88;;;;;;;;;;5039751;28;20413;-83
2023/09/18 00:15:55;;;;;;;2.72;2.10;;;;;;;;;;5039785;28;20382;-82
2023/09/18 00:18:21;;;;;;;3.95;1.92;;;;;;;;;;5039527;28;20390;-82
2023/09/18 00:20:48;;;;;;;2.88;2.10;;;;;;;;;;5037874;28;20743;-82
2023/09/18 00:23:15;;;;;;;2.35;1.60;;;;;;;;;;5023070;28;20861;-82
2023/09/18 00:25:42;;;;;;;1.65;1.55;;;;;;;;;;5040383;28;20414;-82
2023/09/18 00:28:08;;;;;;;2.57;1.77;;;;;;;;;;5040189;28;20390;-82
2023/09/18 00:30:34;;;;;;;2.40;1.55;;;;;;;;;;5039548;28;20414;-82
2023/09/18 00:33:00;;;;;;;2.53;2.10;;;;;;;;;;5039911;28;20387;-82
2023/09/18 00:35:26;;;;;;;2.65;2.10;;;;;;;;;;5039353;28;20382;-82
2023/09/18 00:37:52;;;;;;;2.47;1.70;;;;;;;;;;5039627;28;20437;-83
2023/09/18 00:40:19;;;;;;;1.97;1.87;;;;;;;;;;5039837;28;20853;-82
2023/09/18 00:42:45;;;;;;;2.33;1.90;;;;;;;;;;5039533;28;20391;-82
2023/09/18 00:45:11;;;;;;;3.55;2.00;;;;;;;;;;5040023;28;20505;-82
2023/09/18 00:47:41;;;;;;;3.22;2.10;;;;;;;;;;5040252;28;20387;-82
2023/09/18 00:50:18;;;;;;;2.60;1.80;;;;;;;;;;5039778;28;20413;-82
2023/09/18 00:52:44;;;;;;;2.53;1.88;;;;;;;;;;5038842;28;20379;-84
2023/09/18 00:55:10;;;;;;;1.98;1.77;;;;;;;;;;5039069;28;20403;-82
2023/09/18 00:57:47;;;;;;;2.20;2.00;;;;;;;;;;5039886;28;20387;-82
2023/09/18 01:00:29;;;;;;;2.60;1.83;;;;;;;;;;5040475;28;20383;-82
2023/09/18 01:03:01;;;;;;;3.20;1.90;;;;;;;;;;5039004;28;20388;-82
2023/09/18 01:05:30;;;;;;;2.15;1.70;;;;;;;;;;5039941;28;20462;-82
2023/09/18 01:07:59;;;;;;;2.65;1.80;;;;;;;;;;5039050;28;20379;-82
2023/09/18 01:10:29;;;;;;;3.22;2.00;;;;;;;;;;5038292;28;20431;-82
2023/09/18 01:13:07;;;;;;;2.40;1.90;;;;;;;;;;5039356;28;20383;-82
2023/09/18 01:15:44;;;;;;;2.50;2.17;;;;;;;;;;5038751;28;20868;-82
2023/09/18 01:18:10;;;;;;;2.88;2.28;;;;;;;;;;5038848;28;20395;-82
2023/09/18 01:20:36;;;;;;;2.03;1.83;;;;;;;;;;5039175;28;20383;-82
2023/09/18 01:23:16;;;;;;;2.20;2.00;;;;;;;;;;5039286;28;20402;-82
2023/09/18 01:25:42;;;;;;;2.15;1.95;;;;;;;;;;5039155;28;20427;-82
2023/09/18 01:28:16;;;;;;;2.03;1.88;;;;;;;;;;5038807;28;20733;-82
2023/09/18 01:30:42;;;;;;;2.17;1.80;;;;;;;;;;5039201;28;20390;-82
2023/09/18 01:33:09;;;;;;;3.60;2.00;;;;;;;;;;5039147;28;20386;-82
2023/09/18 01:35:47;;;;;;;2.92;1.67;;;;;;;;;;5038540;28;20391;-82
2023/09/18 01:38:18;;;;;;;2.72;1.95;;;;;;;;;;5039084;28;20379;-82
2023/09/18 01:40:50;;;;;;;2.00;1.80;;;;;;;;;;5038418;28;20391;-82
2023/09/18 01:43:19;;;;;;;1.90;1.80;;;;;;;;;;5037509;28;21323;-81
2023/09/18 01:45:51;;;;;;;3.75;2.03;;;;;;;;;;5054565;28;20413;-82
2023/09/18 01:48:18;;;;;;;2.90;2.00;;;;;;;;;;5038772;28;20415;-82
2023/09/18 01:50:44;;;;;;;2.50;2.30;;;;;;;;;;5050655;28;20426;-82
2023/09/18 01:53:11;;;;;;;2.17;1.98;;;;;;;;;;5036982;28;20442;-82
2023/09/18 01:55:37;;;;;;;5.07;2.30;;;;;;;;;;5043021;28;20866;-82
2023/09/18 01:58:03;;;;;;;2.40;2.08;;;;;;;;;;5047680;28;20397;-82
2023/09/18 02:00:29;;;;;;;2.13;1.92;;;;;;;;;;5055986;28;20417;-82
2023/09/18 02:02:55;;;;;;;2.20;1.98;;;;;;;;;;5054445;28;20409;-82
2023/09/18 02:05:21;;;;;;;3.97;2.70;;;;;;;;;;5039711;28;20422;-82
2023/09/18 02:07:47;;;;;;;2.28;2.10;;;;;;;;;;5038749;28;20780;-82
2023/09/18 02:10:13;;;;;;;2.15;1.95;;;;;;;;;;5038229;28;20398;-83
2023/09/18 02:12:39;;;;;;;3.17;2.35;;;;;;;;;;5035546;28;20374;-82
2023/09/18 02:15:06;;;;;;;2.58;2.00;;;;;;;;;;5037541;28;20403;-82
2023/09/18 02:17:33;;;;;;;2.80;1.87;;;;;;;;;;5044076;28;20377;-82
2023/09/18 02:20:04;;;;;;;2.33;2.00;;;;;;;;;;5057045;28;20382;-82
2023/09/18 02:22:32;;;;;;;2.10;1.90;;;;;;;;;;5039215;28;20935;-82
2023/09/18 02:24:58;;;;;;;3.13;2.20;;;;;;;;;;5037699;28;20522;-82
2023/09/18 02:27:24;;;;;;;2.27;1.90;;;;;;;;;;5052031;28;20378;-82
2023/09/18 02:30:11;;;;;;;1.95;1.85;;;;;;;;;;5031893;28;20412;-82
2023/09/18 02:32:37;;;;;;;2.22;1.90;;;;;;;;;;5038694;28;20389;-82
2023/09/18 02:35:04;;;;;;;2.60;2.00;;;;;;;;;;5047895;28;20375;-82
2023/09/18 02:37:30;;;;;;;2.30;2.10;;;;;;;;;;5037753;28;20470;-82
2023/09/18 02:39:59;;;;;;;2.25;2.05;;;;;;;;;;5040787;28;20422;-82
2023/09/18 02:42:24;;;;;;;2.47;2.28;;;;;;;;;;5037056;28;20474;-82
2023/09/18 02:44:50;;;;;;;2.45;2.10;;;;;;;;;;5036908;28;20480;-82
2023/09/18 02:47:17;;;;;;;2.40;2.15;;;;;;;;;;5037153;28;20386;-82
2023/09/18 02:49:43;;;;;;;3.25;2.42;;;;;;;;;;5037506;28;20470;-83
2023/09/18 02:52:09;;;;;;;2.47;2.28;;;;;;;;;;5041463;28;20761;-82
2023/09/18 02:54:35;;;;;;;2.17;1.90;;;;;;;;;;5037541;28;20382;-82
2023/09/18 02:57:01;;;;;;;3.30;2.22;;;;;;;;;;5037792;28;20721;-82
2023/09/18 02:59:27;;;;;;;3.17;2.42;;;;;;;;;;5039802;28;20379;-82
2023/09/18 03:01:53;;;;;;;2.60;2.40;;;;;;;;;;5047676;28;20445;-81
2023/09/18 03:04:20;;;;;;;4.95;2.67;;;;;;;;;;5059900;28;20444;-82
2023/09/18 03:06:45;;;;;;;2.40;2.20;;;;;;;;;;5040208;28;20387;-82
2023/09/18 03:09:11;;;;;;;3.15;2.58;;;;;;;;;;5037118;28;20383;-82
2023/09/18 03:11:43;;;;;;;2.38;2.17;;;;;;;;;;5051321;28;20382;-82
2023/09/18 03:14:09;;;;;;;3.47;2.50;;;;;;;;;;5036811;28;20473;-82
2023/09/18 03:16:36;;;;;;;2.58;2.17;;;;;;;;;;5036240;28;20383;-82
2023/09/18 03:19:05;;;;;;;2.30;2.00;;;;;;;;;;5037060;28;20387;-81
2023/09/18 03:21:35;;;;;;;3.60;2.25;;;;;;;;;;5037296;28;20891;-81
2023/09/18 03:24:02;;;;;;;2.42;2.22;;;;;;;;;;5042850;28;20496;-82
2023/09/18 03:26:34;;;;;;;2.93;2.27;;;;;;;;;;5057152;28;20385;-82
2023/09/18 03:29:03;;;;;;;3.17;2.20;;;;;;;;;;5039028;28;20423;-82
2023/09/18 03:31:38;;;;;;;2.60;2.25;;;;;;;;;;5037601;28;20383;-82
2023/09/18 03:34:21;;;;;;;3.42;2.22;;;;;;;;;;5036474;28;20407;-81
2023/09/18 03:36:51;;;;;;;2.90;2.47;;;;;;;;;;5049530;28;20505;-82
2023/09/18 03:39:39;;;;;;;2.47;2.28;;;;;;;;;;5047982;28;20458;-82
2023/09/18 03:45:33;;;;;;;2.78;2.25;;;;;;;;;;5046087;28;20411;-82
2023/09/18 03:48:03;;;;;;;3.30;2.40;;;;;;;;;;5035151;28;20390;-82
2023/09/18 03:50:55;;;;;;;4.00;2.83;;;;;;;;;;5037309;28;20387;-82
2023/09/18 03:53:34;;;;;;;2.63;2.40;;;;;;;;;;5031821;28;20468;-82
2023/09/18 03:56:22;;;;;;;3.80;2.47;;;;;;;;;;5043597;28;20379;-82
2023/09/18 03:59:01;;;;;;;;;;;;;;;;;;;;;
2023/09/18 04:01:44;;;;;;;3.15;2.42;;;;;;;;;;5037370;28;20466;-82
2023/09/18 04:04:24;;;;;;;3.20;2.90;;;;;;;;;;5040001;28;20407;-82
2023/09/18 04:07:16;;;;;;;2.88;2.30;;;;;;;;;;5037295;28;20387;-82
2023/09/18 04:09:47;;;;;;;2.92;2.60;;;;;;;;;;5001070;28;20445;-82
2023/09/18 04:12:13;;;;;;;2.58;2.10;;;;;;;;;;5024934;28;20379;-82
2023/09/18 04:14:39;;;;;;;2.65;1.95;;;;;;;;;;5052231;28;20779;-82
2023/09/18 04:23:24;;;;;;;3.33;2.23;;;;;;;;;;5037296;28;20387;-82
2023/09/18 04:25:53;;;;;;;3.08;2.30;;;;;;;;;;5032923;28;20427;-83
2023/09/18 04:31:14;;;;;;;4.45;2.50;;;;;;;;;;5034326;28;20391;-82
2023/09/18 04:34:01;;;;;;;4.65;2.90;;;;;;;;;;5039927;28;20395;-83
2023/09/18 04:36:31;;;;;;;3.88;2.42;;;;;;;;;;5044682;28;20383;-82
2023/09/18 04:39:00;;;;;;;4.10;2.78;;;;;;;;;;5052135;28;20395;-83
2023/09/18 04:41:39;;;;;;;3.00;2.67;;;;;;;;;;5044322;28;20395;-83
2023/09/18 04:44:14;;;;;;;4.75;2.97;;;;;;;;;;5043848;28;20521;-83
2023/09/18 04:46:42;;;;;;;4.82;3.17;;;;;;;;;;5044824;28;20429;-83
2023/09/18 04:49:11;;;;;;;4.90;3.05;;;;;;;;;;5041403;28;20417;-83
2023/09/18 04:51:51;;;;;;;4.60;2.70;;;;;;;;;;5047887;28;20409;-83
2023/09/18 04:54:17;;;;;;;2.78;2.42;;;;;;;;;;5050705;28;20415;-82
2023/09/18 04:56:52;;;;;;;3.38;2.45;;;;;;;;;;5042346;28;20399;-84
2023/09/18 04:59:18;;;;;;;5.10;2.95;;;;;;;;;;5043910;28;20402;-82
2023/09/18 05:01:44;;;;;;;5.72;2.67;;;;;;;;;;5044457;28;20391;-82
2023/09/18 05:04:11;;;;;;;4.57;2.70;;;;;;;;;;5054768;28;20478;-82
2023/09/18 05:06:38;;;;;;;7.05;2.60;;;;;;;;;;5045792;28;20476;-81
2023/09/18 05:09:05;;;;;;;5.53;2.90;;;;;;;;;;5043574;28;20387;-83
2023/09/18 05:11:31;;;;;;;3.88;2.80;;;;;;;;;;5044209;28;20410;-82
2023/09/18 05:13:57;;;;;;;6.57;4.05;;;;;;;;;;5044056;28;20387;-82
2023/09/18 05:16:23;;;;;;;5.82;4.20;;;;;;;;;;5057522;28;20904;-83
2023/09/18 05:18:49;;;;;;;6.82;3.70;;;;;;;;;;5043424;28;20469;-83
2023/09/18 05:21:16;;;;;;;7.47;3.17;;;;;;;;;;5043042;28;20741;-82
2023/09/18 05:23:42;;;;;;;6.60;3.17;;;;;;;;;;5059714;28;20819;-82
2023/09/18 05:26:08;;;;;;;4.95;2.80;;;;;;;;;;5043782;28;20387;-82
2023/09/18 05:28:34;;;;;;;4.53;2.70;;;;;;;;;;5042253;28;20379;-82
2023/09/18 05:31:00;;;;;;;4.93;2.70;;;;;;;;;;5042559;28;20410;-82
2023/09/18 05:33:26;;;;;;;6.30;3.28;;;;;;;;;;5041031;28;20386;-82
2023/09/18 05:35:53;;;;;;;4.38;2.95;;;;;;;;;;5047777;28;20381;-82
2023/09/18 05:38:19;;;;;;;5.32;2.75;;;;;;;;;;5061638;28;20392;-82
2023/09/18 05:40:45;;;;;;;9.50;2.95;;;;;;;;;;5043212;28;20379;-83
2023/09/18 05:43:12;;;;;;;5.43;2.58;;;;;;;;;;5057478;28;20380;-83
2023/09/18 05:45:38;;;;;;;3.90;2.47;;;;;;;;;;5046215;28;20415;-83
2023/09/18 05:48:04;;;;;;;4.70;2.47;;;;;;;;;;5056127;28;20851;-82
2023/09/18 05:50:32;;;;;;;6.47;2.85;;;;;;;;;;5043232;28;20433;-82
2023/09/18 05:53:00;;;;;;;4.70;2.83;;;;;;;;;;5043508;28;20406;-82
2023/09/18 05:55:26;;;;;;;4.55;2.63;;;;;;;;;;5040195;28;20384;-82
2023/09/18 05:57:54;;;;;;;6.07;2.72;;;;;;;;;;5050116;28;20420;-82
2023/09/18 06:00:21;;;;;;;5.70;2.90;;;;;;;;;;5058269;28;20423;-83
2023/09/18 06:02:47;;;;;;;3.38;2.50;;;;;;;;;;5043133;28;20717;-82
2023/09/18 06:05:15;;;;;;;5.03;2.53;;;;;;;;;;5042708;28;20415;-82
2023/09/18 06:07:41;;;;;;;4.97;2.70;;;;;;;;;;5042031;28;20379;-83
2023/09/18 06:10:08;;;;;;;5.47;2.80;;;;;;;;;;5043903;28;20387;-83
2023/09/18 06:12:34;;;;;;;5.43;2.53;;;;;;;;;;5046510;28;20385;-83
2023/09/18 06:15:00;;;;;;;3.45;2.17;;;;;;;;;;5061394;28;20480;-82
2023/09/18 06:17:26;;;;;;;6.18;2.50;;;;;;;;;;5050256;28;20485;-83
2023/09/18 06:19:52;;;;;;;6.25;2.60;;;;;;;;;;5052191;28;20395;-82
2023/09/18 06:22:18;;;;;;;6.18;2.30;;;;;;;;;;5043167;28;20391;-83
2023/09/18 06:24:44;;;;;;;7.95;2.53;;;;;;;;;;5043573;28;20446;-83
2023/09/18 06:27:11;;;;;;;5.97;2.07;;;;;;;;;;5043616;28;20896;-83
2023/09/18 06:29:41;;;;;;;4.35;1.90;;;;;;;;;;5043573;28;20517;-83
2023/09/18 06:32:07;;;;;;;5.28;2.17;;;;;;;;;;5034645;28;20419;-84
2023/09/18 06:34:33;;;;;;;6.15;2.40;;;;;;;;;;5042564;28;20387;-82
2023/09/18 06:36:59;;;;;;;5.87;2.30;;;;;;;;;;5044146;28;20479;-84
2023/09/18 06:39:26;;;;;;;6.43;2.30;;;;;;;;;;5048983;28;20391;-84
2023/09/18 06:41:52;;;;;;;4.85;2.20;;;;;;;;;;5057782;28;20475;-83
2023/09/18 06:44:18;;;;;;;4.82;2.10;;;;;;;;;;5058878;28;20439;-83
2023/09/18 06:46:44;;;;;;;4.55;2.10;;;;;;;;;;5043653;28;20391;-83
2023/09/18 06:49:10;;;;;;;6.90;2.40;;;;;;;;;;5042273;28;20872;-84
2023/09/18 06:51:36;;;;;;;6.45;2.25;;;;;;;;;;5048082;28;20393;-83
2023/09/18 06:54:02;;;;;;;4.43;1.92;;;;;;;;;;5052133;28;20403;-81
2023/09/18 06:56:29;;;;;;;3.75;1.92;;;;;;;;;;5059152;28;20417;-84
2023/09/18 06:58:55;;;;;;;5.28;2.13;;;;;;;;;;5053147;28;20377;-83
2023/09/18 07:01:21;;;;;;;3.67;1.70;;;;;;;;;;5049562;28;20398;-86
2023/09/18 07:03:50;;;;;;;3.85;1.95;;;;;;;;;;5025934;28;20390;-83
2023/09/18 07:06:18;;;;;;;6.40;2.10;;;;;;;;;;5025682;28;20391;-84
2023/09/18 07:08:44;;;;;;;5.13;1.77;;;;;;;;;;5053071;28;20394;-82
2023/09/18 07:11:11;;;;;;;4.25;1.65;;;;;;;;;;5053246;28;20406;-82
2023/09/18 07:13:37;;;;;;;3.83;1.45;;;;;;;;;;5038526;28;20386;-83
2023/09/18 07:16:03;;;;;;;3.78;1.60;;;;;;;;;;5054199;28;20394;-83
2023/09/18 07:18:29;;;;;;;6.95;1.70;;;;;;;;;;5040183;28;20414;-84
2023/09/18 07:20:55;;;;;;;3.92;1.50;;;;;;;;;;5054862;28;20418;-83
2023/09/18 07:23:21;;;;;;;5.47;3.17;;;;;;;;;;5040462;28;20426;-84
2023/09/18 07:25:50;;;;;;;5.78;2.30;;;;;;;;;;5047534;28;20563;-84
2023/09/18 07:28:19;;;;;;;4.45;1.40;;;;;;;;;;5033612;28;20455;-83
2023/09/18 07:30:45;;;;;;;2.13;1.10;;;;;;;;;;5039929;28;20383;-82
2023/09/18 07:33:11;;;;;;;6.30;1.77;;;;;;;;;;5050594;28;20811;-84
2023/09/18 07:35:38;;;;;;;13.70;1.73;;;;;;;;;;5059958;28;20390;-82
2023/09/18 07:38:04;;;;;;;6.50;1.55;;;;;;;;;;5056120;28;20387;-84
2023/09/18 07:40:30;;;;;;;4.13;1.35;;;;;;;;;;5040297;28;20880;-84
2023/09/18 07:42:56;;;;;;;3.05;1.20;;;;;;;;;;5039816;28;20480;-82
2023/09/18 07:45:23;;;;;;;3.93;1.03;;;;;;;;;;5038880;28;20419;-82
2023/09/18 07:47:49;;;;;;;3.88;1.10;;;;;;;;;;5045105;28;20393;-84
2023/09/18 07:50:16;;;;;;;3.83;1.17;;;;;;;;;;5047741;28;20523;-83
2023/09/18 07:52:42;;;;;;;2.77;1.13;;;;;;;;;;5020757;28;20391;-83
2023/09/18 07:55:09;;;;;;;3.00;1.20;;;;;;;;;;5038321;28;20383;-83
2023/09/18 07:57:37;;;;;;;2.78;1.10;;;;;;;;;;5036178;28;20486;-83
2023/09/18 08:00:13;;;;;;;2.00;1.20;;;;;;;;;;5039542;28;20387;-82
2023/09/18 08:02:42;;;;;;;3.80;1.20;;;;;;;;;;5038629;28;20387;-83
2023/09/18 08:05:11;;;;;;;3.08;1.23;;;;;;;;;;5042290;28;20470;-80
2023/09/18 08:07:37;;;;;;;2.97;1.30;;;;;;;;;;5045870;28;20379;-80
2023/09/18 08:10:06;;;;;;;2.75;1.23;;;;;;;;;;5047388;28;20397;-80
2023/09/18 08:12:32;;;;;;;3.75;1.90;;;;;;;;;;5044273;28;20394;-83
2023/09/18 08:14:58;;;;;;;3.30;1.50;;;;;;;;;;5048335;28;20739;-82
2023/09/18 08:17:25;;;;;;;5.40;1.57;;;;;;;;;;5043679;28;20379;-82
2023/09/18 08:19:52;;;;;;;5.20;1.50;;;;;;;;;;5048661;28;20420;-82
2023/09/18 08:22:19;;;;;;;5.05;1.77;;;;;;;;;;5037440;28;20379;-82
2023/09/18 08:24:45;;;;;;;4.30;1.38;;;;;;;;;;5046694;28;20412;-82
2023/09/18 08:27:12;;;;;;;4.78;1.60;;;;;;;;;;5045752;28;20379;-82
2023/09/18 08:29:38;;;;;;;5.63;2.10;;;;;;;;;;5045005;28;20422;-82
2023/09/18 08:32:04;;;;;;;3.30;1.70;;;;;;;;;;5038416;28;20429;-82
2023/09/18 08:34:30;;;;;;;4.05;1.55;;;;;;;;;;5043441;28;20387;-83
2023/09/18 08:36:56;;;;;;;3.50;1.70;;;;;;;;;;5048887;28;20767;-83
2023/09/18 08:39:22;;;;;;;3.05;1.60;;;;;;;;;;5044538;28;20458;-80
2023/09/18 08:41:54;;;;;;;3.90;1.77;;;;;;;;;;5047010;28;20770;-82
2023/09/18 08:44:21;;;;;;;4.10;1.50;;;;;;;;;;5026719;28;20442;-83
2023/09/18 08:46:47;;;;;;;5.65;1.90;;;;;;;;;;5045641;28;20395;-82
2023/09/18 08:49:13;;;;;;;3.28;1.60;;;;;;;;;;5027801;28;20876;-83
2023/09/18 08:51:39;;;;;;;3.95;1.50;;;;;;;;;;5047903;28;20374;-83
2023/09/18 08:54:06;;;;;;;3.10;1.58;;;;;;;;;;5046270;28;20390;-82
2023/09/18 08:56:34;;;;;;;4.00;1.60;;;;;;;;;;5037931;28;20394;-83
2023/09/18 08:59:00;;;;;;;2.80;1.50;;;;;;;;;;5037099;28;20865;-85
2023/09/18 09:01:26;;;;;;;4.32;1.70;;;;;;;;;;5042153;28;20398;-82
2023/09/18 09:03:52;;;;;;;3.43;1.80;;;;;;;;;;5038270;28;20829;-83
2023/09/18 09:06:18;;;;;;;3.25;1.50;;;;;;;;;;5038430;28;20387;-81
2023/09/18 09:08:44;;;;;;;5.03;1.90;;;;;;;;;;5043709;28;20381;-83
2023/09/18 09:11:10;;;;;;;4.00;1.80;;;;;;;;;;5045158;28;20395;-82
2023/09/18 09:13:36;;;;;;;5.53;1.90;;;;;;;;;;5053664;28;20414;-82
2023/09/18 09:16:03;;;;;;;4.97;1.95;;;;;;;;;;5037636;28;20832;-83
2023/09/18 09:18:31;;;;;;;2.97;1.50;;;;;;;;;;5037719;28;20398;-83
2023/09/18 09:21:01;;;;;;;4.57;1.70;;;;;;;;;;5038387;28;20868;-83
2023/09/18 09:23:28;;;;;;;4.57;1.80;;;;;;;;;;5038842;28;20846;-84
2023/09/18 09:25:55;;;;;;;3.25;1.63;;;;;;;;;;5045524;28;20425;-83
2023/09/18 09:28:31;;;;;;;4.22;1.85;;;;;;;;;;5044800;28;20387;-83
2023/09/18 09:31:02;;;;;;;4.65;2.00;;;;;;;;;;5032466;28;20407;-83
2023/09/18 09:33:29;;;;;;;5.03;2.00;;;;;;;;;;5045873;28;20388;-82
2023/09/18 09:35:56;;;;;;;3.65;1.55;;;;;;;;;;5043928;28;20377;-83
2023/09/18 09:44:39;;;;;;;3.00;1.55;;;;;;;;;;4987631;28;20405;-83
2023/09/18 09:47:06;;;;;;;4.53;1.85;;;;;;;;;;5051593;28;20399;-84
2023/09/18 09:49:45;;;;;;;3.47;1.50;;;;;;;;;;5036269;28;20478;-83
2023/09/18 09:52:21;;;;;;;2.85;1.30;;;;;;;;;;5038771;28;20390;-83
2023/09/18 09:54:47;;;;;;;4.45;1.60;;;;;;;;;;5036506;28;20383;-82
2023/09/18 09:57:13;;;;;;;2.95;1.50;;;;;;;;;;5051656;28;20383;-83
2023/09/18 09:59:44;;;;;;;4.72;1.40;;;;;;;;;;5035633;28;20411;-83
2023/09/18 10:02:14;;;;;;;4.47;1.60;;;;;;;;;;5036612;28;20406;-82
2023/09/18 10:04:43;;;;;;;3.40;1.70;;;;;;;;;;5036652;28;20461;-83
2023/09/18 10:07:10;;;;;;;10.05;4.88;;;;;;;;;;5043470;28;20704;-83
2023/09/18 10:09:36;;;;;;;13.07;6.65;;;;;;;;;;5022634;28;20452;-84
2023/09/18 10:12:04;;;;;;;5.43;2.22;;;;;;;;;;5035903;28;20433;-83
2023/09/18 10:14:31;;;;;;;5.63;2.20;;;;;;;;;;5048270;28;20385;-83
2023/09/18 10:16:59;;;;;;;7.05;3.78;;;;;;;;;;5039042;28;20415;-82
2023/09/18 10:19:46;;;;;;;22.85;8.45;;;;;;;;;;5047998;28;20381;-83
2023/09/18 10:22:22;;;;;;;12.45;6.75;;;;;;;;;;5038852;28;20389;-83
2023/09/18 10:24:51;;;;;;;7.20;3.50;;;;;;;;;;5036840;28;20421;-83
2023/09/18 10:27:21;;;;;;;4.13;2.30;;;;;;;;;;5051543;28;20869;-82
2023/09/18 10:29:51;;;;;;;3.47;2.13;;;;;;;;;;5036619;28;20788;-83
2023/09/18 10:32:20;;;;;;;3.75;2.10;;;;;;;;;;5037713;28;20422;-82
2023/09/18 10:34:47;;;;;;;3.45;1.70;;;;;;;;;;5052961;28;20379;-82
2023/09/18 10:37:14;;;;;;;3.53;1.60;;;;;;;;;;5037754;28;20433;-83
2023/09/18 10:39:42;;;;;;;2.63;1.33;;;;;;;;;;5035325;28;20399;-83
2023/09/18 10:42:10;;;;;;;2.58;1.67;;;;;;;;;;5036644;28;20382;-83
2023/09/18 10:44:39;;;;;;;2.92;1.70;;;;;;;;;;5045251;28;20412;-82
2023/09/18 10:47:06;;;;;;;3.78;1.35;;;;;;;;;;5044321;28;20383;-83
2023/09/18 10:49:32;;;;;;;3.00;1.45;;;;;;;;;;5052630;28;20391;-83
2023/09/18 10:51:59;;;;;;;3.33;1.40;;;;;;;;;;5045165;28;20454;-83
2023/09/18 10:54:26;;;;;;;3.13;1.20;;;;;;;;;;5025591;28;20401;-82
2023/09/18 10:56:52;;;;;;;2.43;1.20;;;;;;;;;;5037947;28;20382;-82
2023/09/18 10:59:19;;;;;;;2.78;1.30;;;;;;;;;;5037876;28;20390;-83
2023/09/18 11:01:48;;;;;;;2.63;1.30;;;;;;;;;;5037973;28;20470;-83
2023/09/18 11:04:14;;;;;;;1.88;1.10;;;;;;;;;;5036780;28;20429;-83
2023/09/18 11:06:55;;;;;;;2.50;1.40;;;;;;;;;;5019155;28;20873;-82
2023/09/18 11:09:26;;;;;;;2.92;1.40;;;;;;;;;;5037510;28;20413;-82
2023/09/18 11:12:02;;;;;;;2.13;1.33;;;;;;;;;;5036916;28;20387;-82
2023/09/18 11:14:49;;;;;;;21.58;7.78;;;;;;;;;;5052522;28;20384;-80
2023/09/18 11:17:34;;;;;;;14.45;5.75;;;;;;;;;;5036603;28;20761;-83
2023/09/18 11:20:19;;;;;;;13.93;5.68;;;;;;;;;;5035953;28;20387;-83
2023/09/18 11:22:49;;;;;;;7.50;3.15;;;;;;;;;;5036777;28;20383;-84
2023/09/18 11:25:34;;;;;;;6.88;2.35;;;;;;;;;;5037172;28;20892;-83
2023/09/18 11:28:01;;;;;;;2.78;1.50;;;;;;;;;;5036996;28;20379;-83
2023/09/18 11:30:28;;;;;;;2.93;1.50;;;;;;;;;;5037200;28;20411;-83
2023/09/18 11:32:55;;;;;;;1.55;1.40;;;;;;;;;;5037536;28;20375;-83
2023/09/18 11:35:21;;;;;;;2.92;1.27;;;;;;;;;;5038398;28;20379;-83
2023/09/18 11:37:47;;;;;;;1.92;1.13;;;;;;;;;;5051256;28;20387;-82
2023/09/18 11:40:40;;;;;;;1.93;1.00;;;;;;;;;;5040750;28;20386;-82
2023/09/18 11:43:26;;;;;;;4.77;2.20;;;;;;;;;;5030438;28;20745;-83
2023/09/18 11:45:53;;;;;;;2.67;2.10;;;;;;;;;;5042168;28;20411;-83
2023/09/18 11:48:20;;;;;;;4.75;2.60;;;;;;;;;;5040781;28;20385;-83
2023/09/18 11:50:50;;;;;;;4.10;1.65;;;;;;;;;;5040108;28;20721;-82
2023/09/18 11:53:18;;;;;;;2.05;1.10;;;;;;;;;;5041525;28;20383;-82
2023/09/18 11:55:44;;;;;;;2.28;0.95;;;;;;;;;;5040281;28;20868;-83
2023/09/18 11:58:10;;;;;;;2.05;0.95;;;;;;;;;;5039578;28;20532;-83
2023/09/18 12:00:45;;;;;;;2.63;1.15;;;;;;;;;;5040805;28;20391;-83
2023/09/18 12:03:25;;;;;;;1.40;0.90;;;;;;;;;;5055737;28;20388;-81
2023/09/18 12:05:57;;;;;;;2.42;0.98;;;;;;;;;;5041447;28;20419;-81
2023/09/18 12:08:23;;;;;;;1.10;1.00;;;;;;;;;;5041427;28;20386;-83
2023/09/18 12:10:52;;;;;;;2.45;0.95;;;;;;;;;;5041994;28;20899;-81
2023/09/18 12:13:18;;;;;;;4.30;1.95;;;;;;;;;;5041558;28;20383;-82
2023/09/18 12:15:44;;;;;;;3.97;1.40;;;;;;;;;;5040607;28;20413;-81
2023/09/18 12:18:12;;;;;;;2.72;1.08;;;;;;;;;;5041284;28;20395;-82
2023/09/18 12:20:38;;;;;;;1.35;0.80;;;;;;;;;;5040476;28;20394;-81
2023/09/18 12:23:04;;;;;;;1.80;1.03;;;;;;;;;;5041058;28;20410;-81
2023/09/18 12:25:30;;;;;;;1.80;1.15;;;;;;;;;;5040090;28;20415;-81
2023/09/18 12:27:57;;;;;;;3.42;1.30;;;;;;;;;;5056576;28;20901;-81
2023/09/18 12:30:23;;;;;;;5.15;2.55;;;;;;;;;;5054191;28;20381;-82
2023/09/18 12:32:50;;;;;;;6.05;2.88;;;;;;;;;;5040674;28;20844;-82
2023/09/18 12:35:18;;;;;;;5.32;2.45;;;;;;;;;;5040419;28;20376;-82
2023/09/18 12:37:44;;;;;;;2.58;1.00;;;;;;;;;;5029637;28;20405;-82
2023/09/18 12:40:23;;;;;;;2.80;1.08;;;;;;;;;;5040024;28;20829;-82
2023/09/18 12:42:49;;;;;;;2.03;0.80;;;;;;;;;;5026769;28;20380;-82
2023/09/18 12:45:17;;;;;;;2.05;1.10;;;;;;;;;;5040096;28;20406;-82
2023/09/18 12:47:43;;;;;;;3.80;1.50;;;;;;;;;;5039614;28;20379;-82
2023/09/18 12:50:11;;;;;;;2.40;1.20;;;;;;;;;;5039173;28;20383;-82
2023/09/18 12:52:37;;;;;;;2.83;1.55;;;;;;;;;;5052966;28;20440;-82
2023/09/18 12:55:05;;;;;;;3.05;1.52;;;;;;;;;;5054705;28;20387;-82
2023/09/18 12:57:32;;;;;;;2.28;1.60;;;;;;;;;;5039588;28;20387;-82
2023/09/18 12:59:58;;;;;;;2.20;1.38;;;;;;;;;;5039790;28;20383;-82
2023/09/18 13:02:25;;;;;;;3.30;1.48;;;;;;;;;;5038615;28;20822;-82
2023/09/18 13:04:52;;;;;;;2.67;1.00;;;;;;;;;;5038865;28;20884;-82
2023/09/18 13:07:18;;;;;;;1.40;0.90;;;;;;;;;;5054792;28;20387;-83
2023/09/18 13:09:59;;;;;;;1.60;0.90;;;;;;;;;;5054625;28;20387;-82
2023/09/18 13:12:25;;;;;;;1.60;1.00;;;;;;;;;;5054941;28;20395;-82
2023/09/18 13:14:59;;;;;;;1.30;0.90;;;;;;;;;;5038740;28;20805;-82
2023/09/18 13:17:25;;;;;;;1.88;0.95;;;;;;;;;;5039800;28;20383;-82
2023/09/18 13:19:51;;;;;;;1.10;0.68;;;;;;;;;;5038848;28;20387;-82
2023/09/18 13:22:24;;;;;;;1.52;0.73;;;;;;;;;;5039182;28;20391;-82
2023/09/18 13:24:56;;;;;;;1.52;0.93;;;;;;;;;;5039061;28;20498;-82
2023/09/18 13:27:23;;;;;;;2.50;0.90;;;;;;;;;;5039405;28;20452;-82
2023/09/18 13:29:49;;;;;;;1.35;0.90;;;;;;;;;;5038680;28;20460;-82
2023/09/18 13:32:15;;;;;;;1.15;0.73;;;;;;;;;;5053129;28;20376;-82
2023/09/18 13:34:41;;;;;;;2.30;0.80;;;;;;;;;;5048526;28;20719;-82
2023/09/18 13:37:07;;;;;;;1.40;0.70;;;;;;;;;;5058031;28;20419;-82
2023/09/18 13:39:33;;;;;;;1.60;0.90;;;;;;;;;;5039172;28;20394;-82
2023/09/18 13:41:59;;;;;;;3.65;1.00;;;;;;;;;;5038945;28;20406;-82
2023/09/18 13:44:25;;;;;;;1.65;0.95;;;;;;;;;;5039053;28;20430;-82
2023/09/18 13:46:51;;;;;;;1.17;0.65;;;;;;;;;;5038915;28;20401;-82
2023/09/18 13:49:17;;;;;;;1.40;0.90;;;;;;;;;;5038887;28;20514;-82
2023/09/18 13:51:43;;;;;;;1.25;0.90;;;;;;;;;;5052133;28;20751;-82
2023/09/18 13:54:09;;;;;;;1.10;1.00;;;;;;;;;;5046876;28;20387;-82
2023/09/18 13:56:35;;;;;;;2.17;1.05;;;;;;;;;;5043454;28;20893;-82
2023/09/18 13:59:01;;;;;;;1.42;0.98;;;;;;;;;;5050264;28;20819;-82
2023/09/18 14:01:28;;;;;;;1.10;0.87;;;;;;;;;;5038287;28;20386;-83
2023/09/18 14:03:54;;;;;;;2.00;1.07;;;;;;;;;;5038322;28;20376;-82
2023/09/18 14:06:20;;;;;;;1.30;0.70;;;;;;;;;;5038705;28;20394;-81
2023/09/18 14:08:46;;;;;;;0.90;0.73;;;;;;;;;;5040256;28;20710;-82
2023/09/18 14:11:12;;;;;;;1.33;0.80;;;;;;;;;;5040248;28;20817;-82
2023/09/18 14:13:38;;;;;;;2.20;1.10;;;;;;;;;;5057346;28;20382;-82
2023/09/18 14:16:05;;;;;;;1.83;0.93;;;;;;;;;;5031609;28;20784;-81
2023/09/18 14:18:31;;;;;;;5.68;2.30;;;;;;;;;;5053685;28;20403;-82
2023/09/18 14:20:57;;;;;;;4.28;2.65;;;;;;;;;;5039309;28;20390;-81
2023/09/18 14:23:23;;;;;;;1.80;1.47;;;;;;;;;;5039241;28;20712;-81
2023/09/18 14:25:51;;;;;;;2.78;1.30;;;;;;;;;;5054344;28;20423;-81
2023/09/18 14:28:17;;;;;;;1.40;1.17;;;;;;;;;;5038960;28;20386;-83
2023/09/18 14:30:43;;;;;;;1.48;1.15;;;;;;;;;;5042783;28;20389;-83
2023/09/18 14:33:09;;;;;;;1.17;0.82;;;;;;;;;;5048457;28;20523;-83
2023/09/18 14:35:39;;;;;;;1.50;0.93;;;;;;;;;;5051991;28;20383;-80
2023/09/18 14:38:06;;;;;;;3.20;1.08;;;;;;;;;;5028975;28;20379;-81
2023/09/18 14:40:32;;;;;;;1.48;1.00;;;;;;;;;;5036623;28;20707;-81
2023/09/18 14:42:58;;;;;;;1.90;0.85;;;;;;;;;;5038019;28;20408;-81
2023/09/18 14:45:24;;;;;;;1.25;0.70;;;;;;;;;;5050135;28;20454;-81
2023/09/18 14:47:51;;;;;;;1.27;0.90;;;;;;;;;;5039313;28;20398;-81
2023/09/18 14:50:17;;;;;;;1.90;1.20;;;;;;;;;;5038766;28;20379;-81
2023/09/18 14:52:43;;;;;;;2.58;0.90;;;;;;;;;;5052842;28;20388;-82
2023/09/18 14:55:09;;;;;;;1.20;0.87;;;;;;;;;;5020358;28;20389;-81
2023/09/18 14:57:35;;;;;;;1.00;0.90;;;;;;;;;;5013120;28;20391;-82
2023/09/18 15:00:05;;;;;;;1.90;0.90;;;;;;;;;;5039063;28;20741;-81
2023/09/18 15:02:33;;;;;;;1.38;0.77;;;;;;;;;;5047666;28;20424;-81
2023/09/18 15:05:00;;;;;;;2.30;0.88;;;;;;;;;;5039674;28;20423;-81
2023/09/18 15:07:27;;;;;;;1.50;0.85;;;;;;;;;;5037070;28;20382;-81
2023/09/18 15:09:53;;;;;;;1.60;0.98;;;;;;;;;;5051181;28;20465;-83